Time;durP1;ratioP1;P1;durP2;ratioP2;P2;SDS_P1;SDS_P2;PMS_P1;PMS_P2;Temp;Humidity;BMP_temperature;BMP_pressure;BME280_temperature;BME280_humidity;BME280_pressure;Samples;Min_cycle;Max_cycle;Signal;HPM_P1;HPM_P2
2021/12/31 00:02:21;;;;;;;17.67;4.18;;;11.90;99.90;;;;;;5027910;28;20156;-71
2021/12/31 00:04:47;;;;;;;27.70;5.20;;;11.90;99.90;;;;;;5010259;28;20056;-71
2021/12/31 00:07:13;;;;;;;21.60;5.38;;;11.90;99.90;;;;;;5030079;28;20055;-68
2021/12/31 00:09:38;;;;;;;22.08;4.78;;;12.00;99.90;;;;;;5017559;28;20050;-69
2021/12/31 00:12:07;;;;;;;24.83;5.00;;;12.00;99.90;;;;;;5007588;28;20045;-69
2021/12/31 00:14:34;;;;;;;25.63;5.03;;;11.90;99.90;;;;;;4997146;28;20144;-69
2021/12/31 00:16:59;;;;;;;36.83;6.10;;;11.90;99.90;;;;;;5009672;28;20045;-69
2021/12/31 00:19:29;;;;;;;29.08;6.18;;;11.90;99.90;;;;;;5020477;28;20551;-71
2021/12/31 00:21:54;;;;;;;21.15;4.18;;;11.90;99.90;;;;;;5028215;28;20692;-69
2021/12/31 00:24:22;;;;;;;22.65;4.70;;;11.90;99.90;;;;;;5012733;28;20033;-70
2021/12/31 00:26:47;;;;;;;31.92;5.82;;;12.00;99.90;;;;;;5028348;28;20560;-70
2021/12/31 00:29:13;;;;;;;20.63;5.28;;;11.90;99.90;;;;;;5010244;28;20125;-70
2021/12/31 00:31:38;;;;;;;34.03;5.93;;;11.90;99.90;;;;;;4991908;28;20120;-69
2021/12/31 00:34:04;;;;;;;39.70;5.03;;;11.90;99.90;;;;;;5012244;28;20445;-70
2021/12/31 00:36:47;;;;;;;25.52;4.93;;;12.00;99.90;;;;;;5010949;28;20037;-69
2021/12/31 00:39:14;;;;;;;28.23;5.63;;;11.90;99.90;;;;;;5010565;28;20073;-69
2021/12/31 00:41:41;;;;;;;33.72;7.85;;;11.90;99.90;;;;;;5007706;28;20115;-70
2021/12/31 00:44:07;;;;;;;19.17;4.75;;;12.00;99.90;;;;;;5028695;28;20115;-69
2021/12/31 00:46:33;;;;;;;21.67;4.85;;;12.00;99.90;;;;;;5025884;28;20053;-70
2021/12/31 00:49:02;;;;;;;24.25;5.82;;;12.00;99.90;;;;;;5010268;28;20181;-70
2021/12/31 00:51:28;;;;;;;21.65;4.90;;;12.00;99.90;;;;;;5029725;28;20415;-70
2021/12/31 00:53:53;;;;;;;24.17;4.05;;;12.00;99.90;;;;;;5020119;28;20053;-69
2021/12/31 00:56:19;;;;;;;27.88;5.07;;;12.10;99.90;;;;;;5007045;28;20440;-69
2021/12/31 00:58:45;;;;;;;24.80;5.68;;;12.10;99.90;;;;;;5025069;28;20047;-69
2021/12/31 01:01:17;;;;;;;19.27;4.47;;;12.10;99.90;;;;;;5024847;28;20394;-69
2021/12/31 01:03:43;;;;;;;41.08;6.20;;;12.10;99.90;;;;;;5004835;28;20053;-69
2021/12/31 01:06:08;;;;;;;28.95;5.75;;;12.10;99.90;;;;;;5025950;28;20068;-69
2021/12/31 01:08:34;;;;;;;25.70;5.53;;;12.10;99.90;;;;;;5017174;28;20041;-70
2021/12/31 01:10:59;;;;;;;27.77;5.55;;;12.20;99.90;;;;;;5023938;28;20041;-69
2021/12/31 01:13:34;;;;;;;24.38;5.07;;;12.20;99.90;;;;;;5010201;28;20041;-70
2021/12/31 01:16:01;;;;;;;23.27;5.22;;;12.20;99.90;;;;;;5014958;28;20738;-69
2021/12/31 01:19:45;;;;;;;20.83;4.45;;;12.20;99.90;;;;;;5012977;28;20049;-69
2021/12/31 01:21:17;;;;;;;32.95;6.28;;;12.20;99.90;;;;;;5008425;28;20053;-70
2021/12/31 01:23:44;;;;;;;23.55;4.95;;;12.20;99.90;;;;;;5004660;28;20056;-69
2021/12/31 01:26:10;;;;;;;26.83;6.70;;;12.20;99.90;;;;;;5008997;28;20037;-70
2021/12/31 01:28:36;;;;;;;22.98;4.35;;;12.20;99.90;;;;;;5006775;28;20054;-69
2021/12/31 01:31:02;;;;;;;31.52;6.03;;;12.20;99.90;;;;;;5010574;28;20103;-70
2021/12/31 01:33:28;;;;;;;20.02;4.55;;;12.20;99.90;;;;;;5028279;28;20055;-70
2021/12/31 01:35:53;;;;;;;22.92;4.32;;;12.20;99.90;;;;;;5026466;28;20140;-69
2021/12/31 01:38:19;;;;;;;19.58;4.82;;;12.20;99.90;;;;;;5024389;28;20096;-70
2021/12/31 01:40:45;;;;;;;32.15;5.88;;;12.20;99.90;;;;;;5007112;28;20386;-69
2021/12/31 01:43:12;;;;;;;23.33;5.15;;;12.20;99.90;;;;;;5019672;28;20056;-69
2021/12/31 01:45:44;;;;;;;28.08;5.97;;;12.20;99.90;;;;;;5015875;28;20049;-69
2021/12/31 01:48:23;;;;;;;19.88;5.03;;;12.20;99.90;;;;;;5011875;28;20815;-69
2021/12/31 01:50:49;;;;;;;18.33;4.80;;;12.20;99.90;;;;;;5024242;28;20049;-70
2021/12/31 01:53:16;;;;;;;21.15;4.93;;;12.20;99.90;;;;;;5021407;28;20037;-70
2021/12/31 01:55:43;;;;;;;23.13;5.35;;;12.20;99.90;;;;;;5008361;28;20038;-69
2021/12/31 01:58:09;;;;;;;20.60;4.03;;;12.20;99.90;;;;;;5011197;28;20683;-70
2021/12/31 02:00:37;;;;;;;21.42;5.05;;;12.20;99.90;;;;;;5001276;28;20481;-69
2021/12/31 02:03:04;;;;;;;27.00;4.57;;;12.20;99.90;;;;;;5010636;28;20504;-70
2021/12/31 02:05:30;;;;;;;19.52;4.75;;;12.30;99.90;;;;;;5026924;28;20051;-69
2021/12/31 02:08:00;;;;;;;22.33;4.65;;;12.20;99.90;;;;;;5025564;28;20128;-70
2021/12/31 02:10:26;;;;;;;28.95;4.53;;;12.20;99.90;;;;;;5025523;28;20058;-70
2021/12/31 02:12:53;;;;;;;16.25;5.22;;;12.30;99.90;;;;;;4994889;28;20670;-69
2021/12/31 02:15:20;;;;;;;22.45;4.05;;;12.30;99.90;;;;;;5025704;28;20374;-70
2021/12/31 02:17:48;;;;;;;23.38;5.10;;;12.30;99.90;;;;;;5030435;28;20029;-69
2021/12/31 02:20:15;;;;;;;25.00;5.05;;;12.30;99.90;;;;;;5026813;28;20038;-69
2021/12/31 02:22:55;;;;;;;20.60;4.60;;;12.30;99.90;;;;;;5016794;28;20064;-70
2021/12/31 02:25:23;;;;;;;19.23;5.22;;;12.30;99.90;;;;;;5021710;28;20120;-70
2021/12/31 02:27:49;;;;;;;26.25;5.40;;;12.30;99.90;;;;;;4995455;28;20046;-69
2021/12/31 02:30:15;;;;;;;19.83;5.38;;;12.30;99.90;;;;;;5011552;28;20049;-69
2021/12/31 02:32:41;;;;;;;16.00;4.03;;;12.40;99.90;;;;;;4995400;28;20049;-69
2021/12/31 02:35:09;;;;;;;18.42;3.95;;;12.30;99.90;;;;;;5018390;28;20566;-70
2021/12/31 02:37:35;;;;;;;20.42;4.38;;;12.30;99.90;;;;;;5002719;28;20439;-69
2021/12/31 02:40:05;;;;;;;24.08;5.05;;;12.30;99.90;;;;;;5013512;28;20830;-70
2021/12/31 02:42:30;;;;;;;26.63;4.70;;;12.30;99.90;;;;;;5003798;28;20042;-69
2021/12/31 02:44:56;;;;;;;29.77;5.05;;;12.40;99.90;;;;;;5012394;28;20092;-70
2021/12/31 02:47:22;;;;;;;19.23;4.47;;;12.30;99.90;;;;;;4996887;28;20485;-69
2021/12/31 02:49:49;;;;;;;17.75;4.63;;;12.40;99.90;;;;;;5019985;28;20048;-70
2021/12/31 02:52:16;;;;;;;17.70;4.28;;;12.40;99.90;;;;;;4999555;28;20054;-70
2021/12/31 02:54:45;;;;;;;14.90;4.15;;;12.40;99.90;;;;;;5009520;28;20055;-70
2021/12/31 02:57:13;;;;;;;21.80;4.75;;;12.40;99.90;;;;;;5002271;28;20053;-70
2021/12/31 02:59:40;;;;;;;24.88;5.15;;;12.40;99.90;;;;;;5019258;28;20178;-70
2021/12/31 03:02:06;;;;;;;24.60;5.07;;;12.30;99.90;;;;;;5027452;28;20038;-70
2021/12/31 03:04:34;;;;;;;22.30;4.15;;;12.30;99.90;;;;;;5012144;28;20046;-70
2021/12/31 03:07:02;;;;;;;31.55;5.57;;;12.30;99.90;;;;;;5011512;28;20048;-70
2021/12/31 03:09:28;;;;;;;21.88;4.85;;;12.20;99.90;;;;;;5023508;28;20053;-70
2021/12/31 03:11:56;;;;;;;25.48;5.93;;;12.20;99.90;;;;;;5031362;28;20107;-70
2021/12/31 03:14:23;;;;;;;29.63;5.45;;;12.20;99.90;;;;;;5029200;28;20056;-69
2021/12/31 03:16:49;;;;;;;25.92;5.05;;;12.20;99.90;;;;;;5012058;28;20099;-70
2021/12/31 03:19:16;;;;;;;15.52;3.47;;;12.20;99.90;;;;;;5024729;28;20429;-70
2021/12/31 03:21:42;;;;;;;29.15;5.43;;;12.20;99.90;;;;;;5006878;28;20045;-70
2021/12/31 03:24:07;;;;;;;17.92;4.57;;;12.20;99.90;;;;;;5021395;28;20124;-69
2021/12/31 03:26:34;;;;;;;16.17;4.38;;;12.20;99.90;;;;;;5012219;28;20053;-70
2021/12/31 03:29:00;;;;;;;18.45;3.65;;;12.20;99.90;;;;;;5027564;28;20064;-69
2021/12/31 03:31:27;;;;;;;21.83;4.60;;;12.20;99.90;;;;;;5012771;28;20485;-69
2021/12/31 03:33:52;;;;;;;20.25;4.32;;;12.20;99.90;;;;;;5026699;28;20136;-70
2021/12/31 03:36:18;;;;;;;27.30;5.00;;;12.20;99.90;;;;;;5001238;28;20064;-69
2021/12/31 03:38:43;;;;;;;19.83;4.20;;;12.20;99.90;;;;;;5030662;28;20091;-70
2021/12/31 03:41:09;;;;;;;26.88;6.40;;;12.20;99.90;;;;;;5011833;28;20049;-70
2021/12/31 03:43:34;;;;;;;20.05;5.80;;;12.20;99.90;;;;;;5009900;28;20053;-70
2021/12/31 03:46:00;;;;;;;21.52;5.85;;;12.20;99.90;;;;;;5021378;28;20041;-70
2021/12/31 03:48:25;;;;;;;19.42;4.50;;;12.20;99.90;;;;;;5005821;28;20132;-69
2021/12/31 03:50:51;;;;;;;14.80;4.10;;;12.30;99.90;;;;;;5029966;28;20048;-69
2021/12/31 03:53:17;;;;;;;15.82;4.00;;;12.30;99.90;;;;;;5012342;28;20498;-69
2021/12/31 03:55:43;;;;;;;27.30;4.47;;;12.30;99.90;;;;;;5022304;28;20040;-69
2021/12/31 03:58:09;;;;;;;24.38;4.57;;;12.40;99.90;;;;;;5020779;28;20042;-69
2021/12/31 04:00:35;;;;;;;20.42;4.38;;;12.40;99.90;;;;;;5011058;28;20050;-70
2021/12/31 04:03:11;;;;;;;29.05;4.85;;;12.40;99.90;;;;;;4996659;28;20776;-70
2021/12/31 04:05:39;;;;;;;18.88;5.65;;;12.50;99.90;;;;;;5013910;28;20168;-69
2021/12/31 04:08:06;;;;;;;16.73;3.92;;;12.50;99.90;;;;;;5008253;28;20049;-69
2021/12/31 04:10:32;;;;;;;18.38;3.50;;;12.50;99.90;;;;;;5007646;28;20053;-70
2021/12/31 04:12:58;;;;;;;24.63;4.22;;;12.50;99.90;;;;;;4999637;28;20053;-70
2021/12/31 04:15:24;;;;;;;17.58;5.43;;;12.50;99.90;;;;;;5010576;28;20379;-69
2021/12/31 04:17:50;;;;;;;14.30;4.57;;;12.50;99.90;;;;;;5009704;28;20096;-69
2021/12/31 04:20:19;;;;;;;20.48;5.43;;;12.50;99.90;;;;;;5010617;28;20133;-70
2021/12/31 04:22:55;;;;;;;16.75;3.42;;;12.50;99.90;;;;;;5023743;28;20496;-70
2021/12/31 04:25:22;;;;;;;21.77;3.83;;;12.60;99.90;;;;;;5011199;28;20441;-69
2021/12/31 04:27:47;;;;;;;13.85;3.45;;;12.60;99.90;;;;;;4996045;28;20046;-70
2021/12/31 04:30:13;;;;;;;14.52;4.05;;;12.60;99.90;;;;;;5010673;28;20761;-70
2021/12/31 04:32:40;;;;;;;15.48;4.15;;;12.70;99.90;;;;;;5028352;28;20532;-70
2021/12/31 04:35:07;;;;;;;8.98;2.67;;;12.70;99.90;;;;;;5025260;28;20042;-69
2021/12/31 04:37:33;;;;;;;16.75;3.88;;;12.70;99.90;;;;;;5006634;28;20057;-69
2021/12/31 04:39:58;;;;;;;13.63;3.60;;;12.60;99.90;;;;;;5009983;28;20048;-70
2021/12/31 04:42:24;;;;;;;12.88;4.00;;;12.60;99.90;;;;;;5011132;28;20160;-70
2021/12/31 04:44:49;;;;;;;16.65;4.82;;;12.60;99.90;;;;;;5021491;28;20041;-69
2021/12/31 04:47:15;;;;;;;15.57;3.80;;;12.60;99.90;;;;;;5017747;28;20041;-70
2021/12/31 04:49:41;;;;;;;15.63;3.38;;;12.60;99.90;;;;;;5020246;28;20053;-69
2021/12/31 04:52:06;;;;;;;12.55;2.63;;;12.50;99.90;;;;;;5022133;28;20512;-70
2021/12/31 04:54:32;;;;;;;16.23;3.63;;;12.50;99.90;;;;;;5013793;28;20091;-70
2021/12/31 04:56:59;;;;;;;19.90;3.60;;;12.50;99.90;;;;;;4991685;28;20057;-69
2021/12/31 04:59:24;;;;;;;19.38;4.53;;;12.50;99.90;;;;;;5005906;28;20112;-69
2021/12/31 05:01:50;;;;;;;14.35;3.25;;;12.50;99.90;;;;;;5018312;28;20473;-70
2021/12/31 05:04:16;;;;;;;10.55;2.75;;;12.50;99.90;;;;;;5008791;28;20046;-69
2021/12/31 05:06:43;;;;;;;9.38;2.78;;;12.50;99.90;;;;;;5005353;28;20047;-70
2021/12/31 05:09:09;;;;;;;13.95;3.05;;;12.40;99.90;;;;;;5026977;28;20041;-70
2021/12/31 05:11:35;;;;;;;17.05;3.30;;;12.50;99.90;;;;;;5012586;28;20053;-70
2021/12/31 05:14:01;;;;;;;7.90;2.65;;;12.50;99.90;;;;;;5012560;28;20412;-69
2021/12/31 05:16:27;;;;;;;12.45;3.45;;;12.50;99.90;;;;;;5027688;28;20435;-69
2021/12/31 05:18:52;;;;;;;16.30;3.17;;;12.50;99.90;;;;;;4994683;28;20053;-70
2021/12/31 05:21:18;;;;;;;7.00;2.83;;;12.50;99.90;;;;;;5010909;28;20103;-70
2021/12/31 05:23:43;;;;;;;8.00;2.30;;;12.50;99.90;;;;;;5017322;28;20058;-70
2021/12/31 05:26:09;;;;;;;13.10;3.15;;;12.50;99.90;;;;;;5009260;28;20061;-70
2021/12/31 05:28:34;;;;;;;10.20;3.47;;;12.50;99.90;;;;;;5027368;28;20042;-70
2021/12/31 05:31:00;;;;;;;10.23;2.47;;;12.50;99.90;;;;;;5009822;28;20038;-71
2021/12/31 05:33:26;;;;;;;15.90;3.00;;;12.50;99.90;;;;;;5005543;28;20477;-70
2021/12/31 05:35:51;;;;;;;13.20;2.42;;;12.50;99.90;;;;;;5027449;28;20038;-70
2021/12/31 05:38:17;;;;;;;12.40;3.40;;;12.40;99.90;;;;;;5026729;28;20053;-71
2021/12/31 05:40:42;;;;;;;8.45;2.60;;;12.50;99.90;;;;;;5004232;28;20057;-70
2021/12/31 05:43:08;;;;;;;9.98;2.72;;;12.50;99.90;;;;;;5027511;28;20673;-70
2021/12/31 05:45:33;;;;;;;15.00;3.20;;;12.40;99.90;;;;;;5004659;28;20072;-70
2021/12/31 05:47:59;;;;;;;8.65;2.53;;;12.50;99.90;;;;;;4999340;28;20049;-70
2021/12/31 05:50:28;;;;;;;14.48;2.80;;;12.50;99.90;;;;;;4998587;28;20049;-70
2021/12/31 05:52:58;;;;;;;13.98;3.55;;;12.50;99.90;;;;;;5004388;28;20086;-70
2021/12/31 05:55:24;;;;;;;10.27;2.72;;;12.50;99.90;;;;;;5007102;28;20692;-70
2021/12/31 05:57:49;;;;;;;8.25;2.55;;;12.50;99.90;;;;;;4998276;28;20045;-70
2021/12/31 06:00:16;;;;;;;10.13;2.97;;;12.50;99.90;;;;;;5008478;28;20064;-70
2021/12/31 06:02:41;;;;;;;10.85;2.90;;;12.50;99.90;;;;;;5012292;28;20045;-70
2021/12/31 06:05:07;;;;;;;9.45;2.90;;;12.40;99.90;;;;;;5013621;28;20053;-70
2021/12/31 06:07:33;;;;;;;18.65;3.47;;;12.50;99.90;;;;;;5026230;28;20081;-70
2021/12/31 06:09:59;;;;;;;12.63;3.20;;;12.50;99.90;;;;;;5025676;28;20497;-70
2021/12/31 06:12:24;;;;;;;10.13;2.42;;;12.50;99.90;;;;;;5001921;28;20176;-70
2021/12/31 06:14:53;;;;;;;12.82;3.45;;;12.50;99.90;;;;;;5023678;28;20127;-70
2021/12/31 06:17:24;;;;;;;9.50;2.65;;;12.50;99.90;;;;;;5015567;28;20056;-70
2021/12/31 06:19:50;;;;;;;9.55;3.03;;;12.50;99.90;;;;;;5009093;28;20057;-70
2021/12/31 06:22:16;;;;;;;7.35;2.60;;;12.50;99.90;;;;;;4997379;28;20053;-71
2021/12/31 06:24:42;;;;;;;11.60;3.67;;;12.50;99.90;;;;;;4993634;28;20049;-70
2021/12/31 06:27:08;;;;;;;8.52;2.67;;;12.50;99.90;;;;;;5014303;28;20137;-70
2021/12/31 06:29:34;;;;;;;10.32;3.50;;;12.40;99.90;;;;;;5024862;28;20096;-71
2021/12/31 06:31:59;;;;;;;7.53;2.10;;;12.30;99.90;;;;;;5006535;28;20073;-71
2021/12/31 06:34:25;;;;;;;14.77;4.82;;;12.40;99.90;;;;;;5019372;28;20493;-70
2021/12/31 06:36:50;;;;;;;7.80;2.33;;;12.30;99.90;;;;;;4990176;28;20044;-70
2021/12/31 06:39:16;;;;;;;12.45;2.83;;;12.20;99.90;;;;;;5007925;28;20050;-70
2021/12/31 06:41:42;;;;;;;17.20;3.60;;;12.20;99.90;;;;;;5006243;28;20055;-70
2021/12/31 06:44:07;;;;;;;9.38;2.53;;;12.30;99.90;;;;;;5017230;28;20536;-70
2021/12/31 06:46:33;;;;;;;13.32;2.80;;;12.20;99.90;;;;;;5008221;28;20642;-70
2021/12/31 06:48:58;;;;;;;10.45;2.45;;;12.30;99.90;;;;;;5004372;28;20044;-70
2021/12/31 06:51:24;;;;;;;8.98;2.53;;;12.10;99.90;;;;;;4999029;28;20436;-70
2021/12/31 06:53:49;;;;;;;16.35;3.70;;;12.10;99.90;;;;;;5019058;28;20045;-70
2021/12/31 06:56:15;;;;;;;8.27;2.35;;;12.20;99.90;;;;;;5026852;28;20045;-70
2021/12/31 06:58:40;;;;;;;8.90;2.63;;;12.20;99.90;;;;;;5014613;28;20494;-70
2021/12/31 07:01:06;;;;;;;7.88;3.33;;;12.20;99.90;;;;;;4997180;28;20048;-70
2021/12/31 07:03:32;;;;;;;13.27;2.97;;;12.20;99.90;;;;;;5016813;28;20038;-70
2021/12/31 07:05:57;;;;;;;8.77;2.50;;;12.20;99.90;;;;;;5001777;28;20073;-70
2021/12/31 07:08:23;;;;;;;8.63;2.83;;;12.20;99.90;;;;;;5016975;28;20042;-70
2021/12/31 07:10:48;;;;;;;14.55;2.90;;;12.20;99.90;;;;;;5002600;28;20064;-70
2021/12/31 07:13:14;;;;;;;16.13;3.35;;;12.10;99.90;;;;;;5012577;28;20052;-70
2021/12/31 07:15:44;;;;;;;7.70;2.17;;;12.10;99.90;;;;;;5009020;28;20504;-70
2021/12/31 07:18:10;;;;;;;11.82;3.28;;;12.00;99.90;;;;;;4994139;28;20045;-70
2021/12/31 07:20:36;;;;;;;12.15;3.92;;;12.10;99.90;;;;;;5011081;28;20050;-69
2021/12/31 07:23:11;;;;;;;12.73;2.80;;;12.00;99.90;;;;;;5011855;28;20505;-70
2021/12/31 07:25:38;;;;;;;7.10;2.30;;;12.00;99.90;;;;;;5002487;28;20046;-71
2021/12/31 07:28:05;;;;;;;7.70;2.80;;;12.00;99.90;;;;;;5028074;28;20049;-70
2021/12/31 07:30:30;;;;;;;10.65;2.88;;;12.00;99.90;;;;;;4995317;28;20067;-70
2021/12/31 07:32:56;;;;;;;13.88;2.85;;;11.90;99.90;;;;;;5010924;28;20438;-71
2021/12/31 07:35:23;;;;;;;14.10;3.90;;;11.90;99.90;;;;;;5017987;28;20409;-70
2021/12/31 07:37:49;;;;;;;14.65;3.30;;;11.90;99.90;;;;;;5014162;28;20061;-71
2021/12/31 07:40:24;;;;;;;8.32;2.63;;;11.80;99.90;;;;;;4998729;28;20539;-71
2021/12/31 07:42:50;;;;;;;12.38;3.38;;;11.80;99.90;;;;;;5012639;28;20041;-71
2021/12/31 07:45:15;;;;;;;15.70;3.00;;;11.80;99.90;;;;;;5028288;28;20393;-71
2021/12/31 07:47:41;;;;;;;8.73;2.58;;;11.80;99.90;;;;;;5023595;28;20437;-71
2021/12/31 07:50:07;;;;;;;5.28;1.73;;;11.80;99.90;;;;;;5013609;28;20057;-70
2021/12/31 07:52:32;;;;;;;10.85;3.10;;;11.80;99.90;;;;;;4993358;28;20054;-70
2021/12/31 07:54:58;;;;;;;12.52;3.60;;;11.80;99.90;;;;;;5025847;28;20049;-71
2021/12/31 07:57:23;;;;;;;10.32;3.35;;;11.80;99.90;;;;;;5023164;28;20056;-70
2021/12/31 07:59:49;;;;;;;7.95;2.65;;;11.80;99.90;;;;;;5006849;28;20526;-70
2021/12/31 08:02:14;;;;;;;14.68;3.17;;;11.80;99.90;;;;;;5000402;28;20049;-70
2021/12/31 08:04:40;;;;;;;10.52;3.13;;;11.80;99.90;;;;;;5003611;28;20099;-70
2021/12/31 08:07:05;;;;;;;12.93;3.30;;;11.90;99.90;;;;;;5002074;28;20038;-70
2021/12/31 08:09:31;;;;;;;8.98;2.42;;;11.90;99.90;;;;;;5020370;28;20163;-70
2021/12/31 08:11:57;;;;;;;12.73;3.47;;;11.90;99.90;;;;;;5004174;28;20045;-71
2021/12/31 08:14:22;;;;;;;11.02;3.05;;;12.00;99.90;;;;;;5022069;28;20132;-70
2021/12/31 08:16:48;;;;;;;16.25;3.58;;;12.00;99.90;;;;;;5017909;28;20042;-70
2021/12/31 08:19:13;;;;;;;9.95;3.65;;;12.00;99.90;;;;;;4998049;28;20053;-70
2021/12/31 08:21:39;;;;;;;12.82;3.08;;;12.00;99.90;;;;;;4996112;28;21992;-70
2021/12/31 08:24:05;;;;;;;10.75;2.78;;;12.10;99.90;;;;;;5020989;28;20056;-70
2021/12/31 08:26:30;;;;;;;10.98;2.80;;;12.10;99.90;;;;;;5018625;28;20156;-70
2021/12/31 08:28:56;;;;;;;20.65;3.47;;;12.10;99.90;;;;;;5019056;28;20140;-70
2021/12/31 08:31:21;;;;;;;13.77;3.60;;;12.10;99.90;;;;;;5008462;28;20112;-70
2021/12/31 08:33:47;;;;;;;9.30;2.70;;;12.10;99.90;;;;;;5009493;28;20124;-71
2021/12/31 08:36:12;;;;;;;14.07;3.35;;;12.20;99.90;;;;;;4998056;28;20394;-70
2021/12/31 08:38:38;;;;;;;10.85;3.05;;;12.10;99.90;;;;;;5025274;28;20053;-69
2021/12/31 08:41:04;;;;;;;9.32;2.88;;;12.10;99.90;;;;;;5020457;28;20642;-70
2021/12/31 08:43:29;;;;;;;7.70;2.97;;;12.10;99.90;;;;;;5028001;28;20119;-69
2021/12/31 08:45:56;;;;;;;13.27;3.10;;;12.10;99.90;;;;;;5025652;28;20117;-70
2021/12/31 08:48:21;;;;;;;11.98;2.78;;;12.10;99.90;;;;;;5007870;28;20092;-70
2021/12/31 08:50:47;;;;;;;13.73;3.88;;;12.10;99.90;;;;;;5010357;28;20053;-69
2021/12/31 08:53:13;;;;;;;15.85;3.58;;;12.00;99.90;;;;;;5029081;28;20062;-70
2021/12/31 08:55:38;;;;;;;6.20;2.80;;;12.00;99.90;;;;;;5027700;28;20095;-69
2021/12/31 08:58:04;;;;;;;11.07;3.03;;;12.00;99.90;;;;;;5026157;28;20449;-69
2021/12/31 09:00:30;;;;;;;15.85;3.10;;;12.00;99.90;;;;;;5023428;28;20048;-70
2021/12/31 09:02:56;;;;;;;14.40;4.05;;;12.00;99.90;;;;;;5008349;28;20132;-70
2021/12/31 09:05:22;;;;;;;20.33;4.70;;;12.00;99.90;;;;;;5021013;28;20092;-68
2021/12/31 09:07:48;;;;;;;12.82;4.35;;;12.00;99.90;;;;;;5028602;28;20041;-69
2021/12/31 09:10:14;;;;;;;11.75;4.13;;;12.00;99.90;;;;;;5011156;28;20577;-69
2021/12/31 09:12:40;;;;;;;18.92;3.72;;;12.00;99.90;;;;;;5017597;28;20137;-70
2021/12/31 09:15:07;;;;;;;8.93;2.90;;;12.00;99.90;;;;;;5024631;28;20049;-69
2021/12/31 09:17:32;;;;;;;10.52;3.28;;;12.00;99.90;;;;;;5013320;28;20374;-69
2021/12/31 09:19:58;;;;;;;8.77;3.22;;;12.00;99.90;;;;;;5012011;28;20057;-69
2021/12/31 09:22:25;;;;;;;16.65;3.65;;;12.00;99.90;;;;;;4991644;28;20054;-69
2021/12/31 09:24:50;;;;;;;14.50;3.85;;;12.00;99.90;;;;;;4991233;28;20598;-69
2021/12/31 09:27:16;;;;;;;11.88;4.00;;;12.00;99.90;;;;;;5014471;28;20064;-69
2021/12/31 09:29:42;;;;;;;19.40;4.80;;;11.90;99.90;;;;;;5008859;28;20054;-69
2021/12/31 09:32:07;;;;;;;13.10;3.40;;;11.90;99.90;;;;;;5008217;28;20117;-70
2021/12/31 09:34:34;;;;;;;13.75;4.00;;;11.90;99.90;;;;;;5018032;28;20379;-69
2021/12/31 09:37:00;;;;;;;17.85;4.63;;;11.80;99.90;;;;;;4996929;28;20042;-70
2021/12/31 09:39:25;;;;;;;18.13;3.92;;;11.80;99.90;;;;;;5023603;28;20107;-70
2021/12/31 09:41:51;;;;;;;23.30;4.63;;;11.80;99.90;;;;;;5028937;28;20440;-69
2021/12/31 09:44:20;;;;;;;16.20;4.53;;;11.80;99.90;;;;;;5010737;28;20049;-69
2021/12/31 09:46:46;;;;;;;16.63;4.20;;;11.80;99.90;;;;;;5014506;28;20045;-70
2021/12/31 09:49:11;;;;;;;8.15;2.97;;;11.70;99.90;;;;;;5019483;28;20049;-70
2021/12/31 09:51:42;;;;;;;15.85;4.43;;;11.70;99.90;;;;;;5024839;28;20045;-69
2021/12/31 09:54:08;;;;;;;13.15;3.50;;;11.70;99.90;;;;;;5009924;28;20049;-69
2021/12/31 09:56:39;;;;;;;18.55;4.03;;;11.70;99.90;;;;;;5017582;28;20386;-69
2021/12/31 09:59:05;;;;;;;15.75;4.53;;;11.60;99.90;;;;;;5019295;28;20421;-70
2021/12/31 10:01:31;;;;;;;13.75;4.68;;;11.60;99.90;;;;;;5009619;28;20050;-69
2021/12/31 10:03:58;;;;;;;17.40;5.90;;;11.60;99.90;;;;;;5028167;28;20111;-69
2021/12/31 10:06:24;;;;;;;23.70;4.45;;;11.60;99.90;;;;;;5011093;28;20507;-70
2021/12/31 10:08:50;;;;;;;18.42;3.83;;;11.60;99.90;;;;;;5005342;28;20052;-70
2021/12/31 10:11:20;;;;;;;9.82;3.55;;;11.60;99.90;;;;;;5017426;28;20132;-70
2021/12/31 10:13:58;;;;;;;15.50;3.75;;;11.60;99.90;;;;;;5020255;28;20037;-71
2021/12/31 10:16:28;;;;;;;16.67;5.47;;;11.60;99.90;;;;;;5010749;28;20532;-70
2021/12/31 10:19:16;;;;;;;14.13;4.05;;;11.60;99.90;;;;;;5026392;28;20079;-71
2021/12/31 10:21:46;;;;;;;15.52;4.57;;;11.60;99.90;;;;;;4990509;28;20441;-70
2021/12/31 10:24:24;;;;;;;11.60;3.50;;;11.50;99.90;;;;;;5008617;28;20050;-71
2021/12/31 10:26:54;;;;;;;16.00;4.18;;;11.60;99.90;;;;;;5015047;28;20042;-70
2021/12/31 10:29:21;;;;;;;14.75;4.10;;;11.50;99.90;;;;;;5014063;28;20042;-71
2021/12/31 10:31:51;;;;;;;19.35;4.85;;;11.60;99.90;;;;;;5005304;28;20033;-71
2021/12/31 10:34:29;;;;;;;20.70;4.07;;;11.60;99.90;;;;;;5005950;28;20046;-71
2021/12/31 10:36:56;;;;;;;14.32;4.53;;;11.50;99.90;;;;;;4989255;28;20060;-71
2021/12/31 10:39:27;;;;;;;10.07;3.75;;;11.50;99.90;;;;;;5006444;28;20050;-71
2021/12/31 10:41:59;;;;;;;21.35;5.72;;;11.60;99.90;;;;;;5029172;28;20042;-71
2021/12/31 10:44:39;;;;;;;14.70;4.38;;;11.50;99.90;;;;;;5027660;28;20489;-70
2021/12/31 10:47:11;;;;;;;22.98;4.57;;;11.50;99.90;;;;;;5009053;28;20045;-70
2021/12/31 10:50:00;;;;;;;15.60;3.80;;;11.50;99.90;;;;;;5029708;28;20049;-70
2021/12/31 10:52:32;;;;;;;13.68;3.95;;;11.50;99.90;;;;;;5009064;28;20127;-70
2021/12/31 10:55:14;;;;;;;19.23;4.13;;;11.50;99.90;;;;;;5027200;28;20120;-71
2021/12/31 10:57:40;;;;;;;21.52;4.78;;;11.40;99.90;;;;;;5025264;28;20292;-69
2021/12/31 11:00:08;;;;;;;18.23;4.03;;;11.40;99.90;;;;;;5021496;28;20184;-69
2021/12/31 11:02:35;;;;;;;18.55;4.53;;;11.40;99.90;;;;;;5013419;28;20144;-68
2021/12/31 11:05:00;;;;;;;15.05;4.35;;;11.40;99.90;;;;;;4996262;28;20481;-68
2021/12/31 11:07:28;;;;;;;17.35;3.92;;;11.40;99.90;;;;;;5029628;28;20048;-68
2021/12/31 11:09:59;;;;;;;19.38;4.55;;;11.40;99.90;;;;;;5012025;28;20053;-69
2021/12/31 11:12:26;;;;;;;20.08;5.05;;;11.30;99.90;;;;;;5020148;28;20049;-69
2021/12/31 11:14:53;;;;;;;17.83;5.00;;;11.30;99.90;;;;;;5030541;28;20052;-68
2021/12/31 11:17:18;;;;;;;26.48;5.82;;;11.40;99.90;;;;;;5030368;28;20060;-69
2021/12/31 11:19:45;;;;;;;15.38;4.47;;;11.30;99.90;;;;;;5030255;28;20053;-69
2021/12/31 11:22:12;;;;;;;19.58;4.85;;;11.30;99.90;;;;;;5030804;28;20042;-68
2021/12/31 11:24:39;;;;;;;17.63;5.95;;;11.30;99.90;;;;;;5029375;28;20077;-69
2021/12/31 11:27:42;;;;;;;18.33;4.70;;;11.30;99.90;;;;;;5030214;28;20177;-69
2021/12/31 11:30:29;;;;;;;21.60;5.63;;;11.30;99.90;;;;;;5010768;28;20053;-69
2021/12/31 11:33:05;;;;;;;31.42;5.20;;;11.40;99.90;;;;;;5015905;28;20683;-69
2021/12/31 11:35:36;;;;;;;18.00;4.70;;;11.40;99.90;;;;;;5004921;28;20080;-70
2021/12/31 11:38:36;;;;;;;18.40;5.18;;;11.30;99.90;;;;;;5029822;28;20049;-70
2021/12/31 11:41:08;;;;;;;16.23;4.65;;;11.30;99.90;;;;;;5011170;28;20046;-70
2021/12/31 11:43:36;;;;;;;14.20;5.10;;;11.30;99.90;;;;;;5011333;28;20137;-69
2021/12/31 11:46:12;;;;;;;13.77;4.20;;;11.30;99.90;;;;;;5015418;28;20044;-70
2021/12/31 11:48:43;;;;;;;10.80;3.97;;;11.30;99.90;;;;;;5017125;28;20124;-69
2021/12/31 11:51:09;;;;;;;13.75;3.80;;;11.30;99.90;;;;;;5005998;28;20053;-69
2021/12/31 11:54:07;;;;;;;17.42;3.67;;;11.30;99.90;;;;;;5026906;28;20496;-69
2021/12/31 11:56:33;;;;;;;16.63;4.18;;;11.30;99.90;;;;;;5003581;28;20080;-69
2021/12/31 11:59:19;;;;;;;7.55;3.50;;;11.30;99.90;;;;;;5010211;28;20470;-70
2021/12/31 12:01:48;;;;;;;11.27;3.60;;;11.30;99.90;;;;;;4992038;28;20054;-69
2021/12/31 12:04:33;;;;;;;12.13;3.97;;;11.30;99.90;;;;;;5015346;28;20085;-69
2021/12/31 12:07:26;;;;;;;7.78;3.92;;;11.30;99.90;;;;;;5010821;28;20069;-70
2021/12/31 12:09:51;;;;;;;17.15;4.13;;;11.20;99.90;;;;;;5008020;28;20045;-70
2021/12/31 12:12:23;;;;;;;11.05;3.97;;;11.20;99.90;;;;;;4992396;28;20061;-70
2021/12/31 12:14:50;;;;;;;10.82;3.40;;;11.20;99.90;;;;;;4992145;28;20184;-71
2021/12/31 12:17:31;;;;;;;11.48;3.72;;;11.20;99.90;;;;;;4992183;28;20061;-71
2021/12/31 12:20:02;;;;;;;8.18;3.45;;;11.20;99.90;;;;;;4992230;28;20096;-71
2021/12/31 12:22:40;;;;;;;12.68;4.53;;;11.20;99.90;;;;;;5017298;28;20042;-71
2021/12/31 12:25:12;;;;;;;14.40;5.05;;;11.30;99.90;;;;;;5011087;28;20053;-71
2021/12/31 12:27:38;;;;;;;13.77;3.35;;;11.20;99.90;;;;;;5029824;28;20133;-70
2021/12/31 12:30:10;;;;;;;14.60;4.57;;;11.20;99.90;;;;;;5021282;28;20064;-70
2021/12/31 12:32:51;;;;;;;10.82;4.45;;;11.20;99.90;;;;;;5018706;28;20069;-70
2021/12/31 12:35:27;;;;;;;15.60;4.25;;;11.20;99.90;;;;;;5012147;28;20115;-70
2021/12/31 12:37:58;;;;;;;16.33;4.40;;;11.20;99.90;;;;;;5010261;28;20116;-71
2021/12/31 12:40:47;;;;;;;17.85;4.90;;;11.20;99.90;;;;;;5015790;28;20067;-71
2021/12/31 12:43:43;;;;;;;14.85;4.00;;;11.20;99.90;;;;;;5008461;28;20494;-71